Time;durP1;ratioP1;P1;durP2;ratioP2;P2;SDS_P1;SDS_P2;PMS_P1;PMS_P2;Temp;Humidity;BMP_temperature;BMP_pressure;BME280_temperature;BME280_humidity;BME280_pressure;Samples;Min_cycle;Max_cycle;Signal;HPM_P1;HPM_P2
2023/06/16 00:01:15;;;;;;;3.70;3.40;;;22.50;44.90;;;;;;5038825;28;20254;-77
2023/06/16 00:03:43;;;;;;;3.55;3.25;;;22.50;44.80;;;;;;5055519;28;20206;-77
2023/06/16 00:06:13;;;;;;;3.85;3.55;;;22.40;44.70;;;;;;5055334;28;20214;-76
2023/06/16 00:08:41;;;;;;;4.35;3.40;;;22.40;44.90;;;;;;5055103;28;20222;-76
2023/06/16 00:11:08;;;;;;;3.70;3.40;;;22.40;44.90;;;;;;5054989;28;20219;-76
2023/06/16 00:13:37;;;;;;;3.60;3.30;;;22.40;44.90;;;;;;5055240;28;20201;-76
2023/06/16 00:16:04;;;;;;;5.03;3.75;;;22.40;45.00;;;;;;5055356;28;20195;-76
2023/06/16 00:18:32;;;;;;;3.70;3.40;;;22.40;45.10;;;;;;5054925;28;20206;-78
2023/06/16 00:21:01;;;;;;;3.78;3.47;;;22.40;45.10;;;;;;5056115;28;20233;-77
2023/06/16 00:23:29;;;;;;;4.07;3.67;;;22.40;45.20;;;;;;5055757;28;20278;-77
2023/06/16 00:25:56;;;;;;;3.88;3.58;;;22.30;45.00;;;;;;5054884;28;20237;-77
2023/06/16 00:28:23;;;;;;;3.70;3.40;;;22.30;45.10;;;;;;5056087;28;20230;-77
2023/06/16 00:30:51;;;;;;;3.70;3.40;;;22.30;45.20;;;;;;5054772;28;20219;-77
2023/06/16 00:33:19;;;;;;;3.65;3.35;;;22.30;45.30;;;;;;5054758;28;20650;-77
2023/06/16 00:35:48;;;;;;;3.55;3.25;;;22.30;45.20;;;;;;5038268;28;20286;-77
2023/06/16 00:38:15;;;;;;;4.05;3.75;;;22.30;45.20;;;;;;5054664;28;20196;-77
2023/06/16 00:40:41;;;;;;;4.00;3.65;;;22.30;45.30;;;;;;5055039;28;20253;-77
2023/06/16 00:43:09;;;;;;;3.90;3.60;;;22.30;45.40;;;;;;5054676;28;20195;-77
2023/06/16 00:45:36;;;;;;;3.53;3.22;;;22.20;45.30;;;;;;5054304;28;20196;-77
2023/06/16 00:48:05;;;;;;;3.53;3.22;;;22.20;45.10;;;;;;5038041;28;20203;-77
2023/06/16 00:50:32;;;;;;;5.50;3.70;;;22.20;45.20;;;;;;5054393;28;20215;-77
2023/06/16 00:52:59;;;;;;;4.00;3.58;;;22.20;45.10;;;;;;5055744;28;20183;-77
2023/06/16 00:55:27;;;;;;;3.80;3.50;;;22.20;45.00;;;;;;5054237;28;20203;-77
2023/06/16 00:57:54;;;;;;;3.67;3.38;;;22.20;45.10;;;;;;5054380;28;20195;-77
2023/06/16 01:00:22;;;;;;;4.65;3.47;;;22.20;45.10;;;;;;5036545;28;20215;-77
2023/06/16 01:02:49;;;;;;;3.70;3.40;;;22.20;45.00;;;;;;5054041;28;20202;-77
2023/06/16 01:05:21;;;;;;;4.20;3.80;;;22.20;45.20;;;;;;5055206;28;20229;-77
2023/06/16 01:07:52;;;;;;;3.63;3.35;;;22.10;45.20;;;;;;5054772;28;20619;-77
2023/06/16 01:10:25;;;;;;;4.10;3.80;;;22.10;45.30;;;;;;5054687;28;20285;-77
2023/06/16 01:12:55;;;;;;;3.65;3.35;;;22.10;45.20;;;;;;5054092;28;20188;-76
2023/06/16 01:15:24;;;;;;;3.85;3.55;;;22.10;45.80;;;;;;5054172;28;20550;-76
2023/06/16 01:17:54;;;;;;;4.00;3.70;;;22.10;45.20;;;;;;5054675;28;20588;-76
2023/06/16 01:20:26;;;;;;;3.83;3.42;;;22.10;45.20;;;;;;5053816;28;20654;-76
2023/06/16 01:23:00;;;;;;;3.58;3.28;;;22.00;45.10;;;;;;5054650;28;20535;-77
2023/06/16 01:25:30;;;;;;;4.13;3.70;;;22.00;45.30;;;;;;5054377;28;20202;-77
2023/06/16 01:27:57;;;;;;;4.03;3.63;;;22.00;45.20;;;;;;5054331;28;20291;-77
2023/06/16 01:30:25;;;;;;;3.63;3.30;;;22.00;45.40;;;;;;5053835;28;20272;-77
2023/06/16 01:32:56;;;;;;;3.88;3.58;;;22.00;45.40;;;;;;5053897;28;20215;-77
2023/06/16 01:35:24;;;;;;;4.07;3.78;;;22.00;45.40;;;;;;5053559;28;20262;-77
2023/06/16 01:37:53;;;;;;;4.00;3.70;;;22.00;45.40;;;;;;5053703;28;20199;-77
2023/06/16 01:40:20;;;;;;;4.10;3.60;;;22.00;45.40;;;;;;5053543;28;20192;-77
2023/06/16 01:42:49;;;;;;;3.70;3.40;;;22.00;45.40;;;;;;5053671;28;20203;-77
2023/06/16 01:45:16;;;;;;;3.60;3.30;;;21.90;45.40;;;;;;5054002;28;20206;-77
2023/06/16 01:47:44;;;;;;;3.55;3.30;;;22.00;45.40;;;;;;5054494;28;20199;-77
2023/06/16 01:50:11;;;;;;;4.13;3.72;;;21.90;45.30;;;;;;5055507;28;20600;-77
2023/06/16 01:52:38;;;;;;;3.90;3.60;;;21.90;45.30;;;;;;5054969;28;20697;-77
2023/06/16 01:55:06;;;;;;;3.60;3.30;;;21.90;45.40;;;;;;5055443;28;20199;-77
2023/06/16 01:57:33;;;;;;;3.78;3.47;;;21.90;45.40;;;;;;5053821;28;20612;-77
2023/06/16 02:00:03;;;;;;;3.72;3.42;;;21.90;45.30;;;;;;5054092;28;20286;-77
2023/06/16 02:02:43;;;;;;;4.03;3.63;;;21.90;45.50;;;;;;5064106;28;20627;-77
2023/06/16 02:05:11;;;;;;;3.65;3.33;;;21.90;45.50;;;;;;5053892;28;20214;-77
2023/06/16 02:07:41;;;;;;;3.97;3.67;;;21.80;45.50;;;;;;5036791;28;20678;-77
2023/06/16 02:10:11;;;;;;;3.92;3.63;;;21.80;45.30;;;;;;5053609;28;20211;-77
2023/06/16 02:12:38;;;;;;;3.97;3.67;;;21.90;45.40;;;;;;5052836;28;20225;-77
2023/06/16 02:15:09;;;;;;;4.22;3.83;;;21.90;45.50;;;;;;5052683;28;20249;-77
2023/06/16 02:17:36;;;;;;;3.92;3.53;;;21.80;45.40;;;;;;5052858;28;20192;-77
2023/06/16 02:20:06;;;;;;;3.95;3.65;;;21.80;45.40;;;;;;5052905;28;20198;-77
2023/06/16 02:22:35;;;;;;;3.90;3.60;;;21.80;45.60;;;;;;5053332;28;20223;-77
2023/06/16 02:25:02;;;;;;;4.18;3.88;;;21.80;45.40;;;;;;5036324;28;20654;-77
2023/06/16 02:27:30;;;;;;;4.40;3.92;;;21.80;45.40;;;;;;5053114;28;20596;-77
2023/06/16 02:29:58;;;;;;;3.85;3.55;;;21.70;45.40;;;;;;5036257;28;20222;-77
2023/06/16 02:32:27;;;;;;;4.55;3.88;;;21.70;45.50;;;;;;5052539;28;20215;-77
2023/06/16 02:34:56;;;;;;;4.28;3.97;;;21.70;45.40;;;;;;5036520;28;20199;-77
2023/06/16 02:37:27;;;;;;;3.90;3.60;;;21.70;45.50;;;;;;5036006;28;20199;-77
2023/06/16 02:39:56;;;;;;;4.45;4.05;;;21.70;45.50;;;;;;5052304;28;20189;-77
2023/06/16 02:42:23;;;;;;;4.18;3.80;;;21.70;45.40;;;;;;5035981;28;20333;-77
2023/06/16 02:44:50;;;;;;;4.30;4.00;;;21.70;45.50;;;;;;5052421;28;20317;-77
2023/06/16 02:47:19;;;;;;;4.03;3.72;;;21.70;45.40;;;;;;5035644;28;20202;-77
2023/06/16 02:49:48;;;;;;;4.28;3.88;;;21.60;45.40;;;;;;5035999;28;20239;-77
2023/06/16 02:52:16;;;;;;;4.25;3.85;;;21.60;45.40;;;;;;5052019;28;20218;-77
2023/06/16 02:54:44;;;;;;;4.00;3.70;;;21.60;45.40;;;;;;5052229;28;20203;-77
2023/06/16 02:57:15;;;;;;;3.78;3.47;;;21.60;45.40;;;;;;5052617;28;20207;-77
2023/06/16 02:59:47;;;;;;;4.25;3.85;;;21.70;45.70;;;;;;5052280;28;20623;-77
2023/06/16 03:02:16;;;;;;;4.43;4.03;;;21.60;45.60;;;;;;5052388;28;20215;-77
2023/06/16 03:04:52;;;;;;;4.20;3.90;;;21.60;45.60;;;;;;5052190;28;20203;-77
2023/06/16 03:07:24;;;;;;;4.57;4.18;;;21.60;45.40;;;;;;5052372;28;20593;-77
2023/06/16 03:09:52;;;;;;;3.83;3.53;;;21.60;45.50;;;;;;5052213;28;20697;-77
2023/06/16 03:12:23;;;;;;;4.82;4.32;;;21.50;45.60;;;;;;5053690;28;20268;-77
2023/06/16 03:14:57;;;;;;;4.25;3.85;;;21.50;45.40;;;;;;5053102;28;20202;-77
2023/06/16 03:17:24;;;;;;;4.03;3.72;;;21.50;45.50;;;;;;5052509;28;20200;-77
2023/06/16 03:19:53;;;;;;;4.90;4.50;;;21.60;45.60;;;;;;5052307;28;20211;-77
2023/06/16 03:22:32;;;;;;;5.32;4.55;;;21.60;45.60;;;;;;5051938;28;20698;-77
2023/06/16 03:25:02;;;;;;;4.95;4.28;;;21.70;45.70;;;;;;5055119;28;20647;-77
2023/06/16 03:27:31;;;;;;;4.82;4.43;;;21.60;45.40;;;;;;5040244;28;20212;-77
2023/06/16 03:30:02;;;;;;;4.47;3.92;;;21.70;45.40;;;;;;5056029;28;20215;-77
2023/06/16 03:32:45;;;;;;;4.10;3.80;;;21.70;45.40;;;;;;5056443;28;20202;-77
2023/06/16 03:35:14;;;;;;;4.82;3.95;;;21.80;45.40;;;;;;5056651;28;20249;-77
2023/06/16 03:37:41;;;;;;;4.88;4.00;;;21.80;45.20;;;;;;5055740;28;20206;-77
2023/06/16 03:40:09;;;;;;;4.55;4.15;;;21.80;45.20;;;;;;5055873;28;20191;-77
2023/06/16 03:42:38;;;;;;;4.50;4.10;;;21.90;45.20;;;;;;5055738;28;20249;-77
2023/06/16 03:45:06;;;;;;;4.40;4.10;;;21.90;45.20;;;;;;5055912;28;20195;-77
2023/06/16 03:47:33;;;;;;;4.18;3.88;;;21.90;45.10;;;;;;5055774;28;20242;-76
2023/06/16 03:50:02;;;;;;;4.68;4.28;;;21.90;45.10;;;;;;5055809;28;20386;-77
2023/06/16 03:52:32;;;;;;;4.30;3.90;;;21.90;45.00;;;;;;5039484;28;20219;-77
2023/06/16 03:55:01;;;;;;;4.70;4.20;;;22.00;45.10;;;;;;5056825;28;20200;-77
2023/06/16 03:57:29;;;;;;;4.45;4.10;;;22.00;45.00;;;;;;5055859;28;20195;-77
2023/06/16 03:59:59;;;;;;;4.82;4.30;;;22.00;45.00;;;;;;5056080;28;20191;-76
2023/06/16 04:02:27;;;;;;;4.50;4.10;;;22.00;45.00;;;;;;5057956;28;20231;-78
2023/06/16 04:04:56;;;;;;;4.60;4.20;;;22.00;45.00;;;;;;5057482;28;20227;-77
2023/06/16 04:07:25;;;;;;;5.20;4.32;;;22.00;45.00;;;;;;5056611;28;20218;-77
2023/06/16 04:09:54;;;;;;;4.60;4.20;;;22.00;45.00;;;;;;5056723;28;20704;-77
2023/06/16 04:12:21;;;;;;;4.95;4.45;;;22.00;44.90;;;;;;5057075;28;20223;-77
2023/06/16 04:14:48;;;;;;;4.50;4.10;;;22.00;45.00;;;;;;5055630;28;20195;-77
2023/06/16 04:17:16;;;;;;;4.43;4.13;;;22.00;45.00;;;;;;5055782;28;20201;-77
2023/06/16 04:19:46;;;;;;;5.43;4.35;;;22.00;44.90;;;;;;5055696;28;20206;-77
2023/06/16 04:22:14;;;;;;;4.55;4.15;;;22.00;45.00;;;;;;5055318;28;20222;-77
2023/06/16 04:24:49;;;;;;;4.30;4.00;;;22.00;44.90;;;;;;5039563;28;20213;-77
2023/06/16 04:27:22;;;;;;;5.05;4.55;;;22.00;44.90;;;;;;5055364;28;20278;-77
2023/06/16 04:29:51;;;;;;;4.43;4.13;;;22.00;45.00;;;;;;5039982;28;20207;-77
2023/06/16 04:32:18;;;;;;;4.82;4.40;;;22.00;45.10;;;;;;5055466;28;20215;-77
2023/06/16 04:34:52;;;;;;;4.90;4.50;;;22.00;45.10;;;;;;5055650;28;20203;-77
2023/06/16 04:37:21;;;;;;;4.80;4.40;;;22.00;45.00;;;;;;5055298;28;20187;-77
2023/06/16 04:39:48;;;;;;;4.03;3.63;;;22.00;45.00;;;;;;5055159;28;20199;-77
2023/06/16 04:42:20;;;;;;;5.60;4.25;;;22.00;45.10;;;;;;5055003;28;20226;-77
2023/06/16 04:44:48;;;;;;;4.80;4.30;;;22.10;45.20;;;;;;5054685;28;20202;-77
2023/06/16 04:47:17;;;;;;;4.75;4.35;;;22.10;45.20;;;;;;5054581;28;20276;-77
2023/06/16 04:49:45;;;;;;;4.95;4.45;;;22.20;45.10;;;;;;5054524;28;20203;-77
2023/06/16 04:52:12;;;;;;;4.80;4.40;;;22.30;44.90;;;;;;5038078;28;20222;-77
2023/06/16 04:54:40;;;;;;;4.55;4.00;;;22.40;44.70;;;;;;5054788;28;20206;-77
2023/06/16 04:57:09;;;;;;;5.00;4.50;;;22.60;44.40;;;;;;5040455;28;20249;-77
2023/06/16 04:59:37;;;;;;;4.97;4.55;;;22.70;44.20;;;;;;5061748;28;20274;-77
2023/06/16 05:02:06;;;;;;;4.80;4.40;;;22.90;44.00;;;;;;5063183;28;20302;-77
2023/06/16 05:04:34;;;;;;;4.82;4.13;;;23.00;43.70;;;;;;5055927;28;20196;-77
2023/06/16 05:07:01;;;;;;;4.32;3.92;;;23.10;43.60;;;;;;5056912;28;20345;-77
2023/06/16 05:09:29;;;;;;;4.93;4.53;;;23.20;43.40;;;;;;5056305;28;20199;-78
2023/06/16 05:11:56;;;;;;;5.15;4.70;;;23.30;43.20;;;;;;5055740;28;20231;-78
2023/06/16 05:14:23;;;;;;;4.88;4.45;;;23.40;43.30;;;;;;5054897;28;20198;-78
2023/06/16 05:16:52;;;;;;;4.70;4.30;;;23.50;43.30;;;;;;5054574;28;20286;-78
2023/06/16 05:19:19;;;;;;;4.65;4.10;;;23.60;43.90;;;;;;5054382;28;20195;-78
2023/06/16 05:21:55;;;;;;;6.88;5.53;;;23.60;43.00;;;;;;5054543;28;20216;-78
2023/06/16 05:24:23;;;;;;;5.60;5.10;;;23.60;43.40;;;;;;5054666;28;20200;-78
2023/06/16 05:26:50;;;;;;;7.47;5.20;;;23.30;44.60;;;;;;5056629;28;20199;-78
2023/06/16 05:29:18;;;;;;;7.40;5.68;;;23.30;44.10;;;;;;5056306;28;20205;-78
2023/06/16 05:31:46;;;;;;;5.35;4.85;;;23.40;44.00;;;;;;5056358;28;20251;-78
2023/06/16 05:34:15;;;;;;;6.90;4.82;;;23.40;43.80;;;;;;5056331;28;20683;-78
2023/06/16 05:36:41;;;;;;;5.40;4.90;;;23.50;43.70;;;;;;5055739;28;20223;-78
2023/06/16 05:39:12;;;;;;;6.35;5.30;;;23.50;43.40;;;;;;5041743;28;20579;-78
2023/06/16 05:41:40;;;;;;;7.18;4.97;;;23.60;43.30;;;;;;5055488;28;20212;-79
2023/06/16 05:44:07;;;;;;;6.68;5.20;;;23.60;43.10;;;;;;5054263;28;20200;-79
2023/06/16 05:46:34;;;;;;;8.00;5.60;;;23.70;42.90;;;;;;5053737;28;20207;-79
2023/06/16 05:49:02;;;;;;;7.18;5.20;;;23.80;43.00;;;;;;5037649;28;20199;-79
2023/06/16 05:51:31;;;;;;;5.78;4.93;;;23.80;42.70;;;;;;5053843;28;20246;-79
2023/06/16 05:53:58;;;;;;;7.13;5.10;;;23.90;42.60;;;;;;5054102;28;20207;-79
2023/06/16 05:56:26;;;;;;;5.65;4.82;;;24.00;42.40;;;;;;5053656;28;20195;-79
2023/06/16 05:58:53;;;;;;;6.03;5.20;;;24.00;42.10;;;;;;5053808;28;20195;-79
2023/06/16 06:01:21;;;;;;;5.43;4.93;;;24.10;41.90;;;;;;5053907;28;20711;-78
2023/06/16 06:03:48;;;;;;;6.07;5.47;;;24.20;41.70;;;;;;5053410;28;20195;-78
2023/06/16 06:06:17;;;;;;;5.47;4.57;;;24.30;41.50;;;;;;5053377;28;20611;-78
2023/06/16 06:08:47;;;;;;;6.47;4.53;;;24.40;41.30;;;;;;5053335;28;20628;-78
2023/06/16 06:11:17;;;;;;;5.00;4.60;;;24.50;41.20;;;;;;5053763;28;20230;-78
2023/06/16 06:13:44;;;;;;;5.63;4.70;;;24.60;41.10;;;;;;5054452;28;20218;-78
2023/06/16 06:16:11;;;;;;;5.20;4.70;;;24.70;41.00;;;;;;5052996;28;20245;-78
2023/06/16 06:18:43;;;;;;;4.75;4.35;;;24.70;40.80;;;;;;5052980;28;20647;-79
2023/06/16 06:21:11;;;;;;;5.53;4.75;;;24.80;40.70;;;;;;5038725;28;20215;-79
2023/06/16 06:23:38;;;;;;;5.63;4.43;;;24.90;40.60;;;;;;5053138;28;20192;-78
2023/06/16 06:26:07;;;;;;;7.20;4.70;;;25.00;40.60;;;;;;5053672;28;20203;-78
2023/06/16 06:28:34;;;;;;;4.88;4.38;;;25.00;40.50;;;;;;5052878;28;20210;-78
2023/06/16 06:31:02;;;;;;;5.30;4.80;;;25.20;40.40;;;;;;5052387;28;20247;-78
2023/06/16 06:33:31;;;;;;;5.18;4.68;;;25.20;40.20;;;;;;5053291;28;20230;-78
2023/06/16 06:35:58;;;;;;;4.43;4.03;;;25.30;40.00;;;;;;5052472;28;20550;-78
2023/06/16 06:38:26;;;;;;;6.30;4.07;;;25.40;39.90;;;;;;5052587;28;20195;-76
2023/06/16 06:40:54;;;;;;;4.43;4.03;;;25.50;39.80;;;;;;5052371;28;20219;-76
2023/06/16 06:43:22;;;;;;;5.35;4.70;;;25.50;39.60;;;;;;5052466;28;20207;-76
2023/06/16 06:45:55;;;;;;;4.85;4.43;;;25.60;39.50;;;;;;5052519;28;20572;-76
2023/06/16 06:48:22;;;;;;;6.40;4.32;;;25.60;39.30;;;;;;5052523;28;20661;-76
2023/06/16 06:50:54;;;;;;;4.70;4.30;;;25.70;39.20;;;;;;5053045;28;20246;-76
2023/06/16 06:53:21;;;;;;;5.00;4.40;;;25.80;39.00;;;;;;5053066;28;20622;-76
2023/06/16 06:55:48;;;;;;;4.85;4.40;;;25.90;38.90;;;;;;5052574;28;20208;-76
2023/06/16 06:58:15;;;;;;;4.93;4.45;;;25.90;38.90;;;;;;5038229;28;20654;-76
2023/06/16 07:00:43;;;;;;;6.35;4.43;;;26.00;38.70;;;;;;5056408;28;20249;-76
2023/06/16 07:03:12;;;;;;;5.45;4.38;;;26.10;38.60;;;;;;5056768;28;20201;-76
2023/06/16 07:05:39;;;;;;;4.95;4.50;;;26.10;38.50;;;;;;5056931;28;20248;-76
2023/06/16 07:08:06;;;;;;;4.78;4.20;;;26.10;38.30;;;;;;5057233;28;20673;-76
2023/06/16 07:10:33;;;;;;;4.93;4.18;;;26.20;38.30;;;;;;5056043;28;20286;-76
2023/06/16 07:13:01;;;;;;;4.80;4.35;;;26.30;38.20;;;;;;5039817;28;20617;-76
2023/06/16 07:15:28;;;;;;;5.28;4.38;;;26.30;38.10;;;;;;5056623;28;20191;-76
2023/06/16 07:17:56;;;;;;;6.25;4.53;;;26.40;38.00;;;;;;5055914;28;20265;-76
2023/06/16 07:20:23;;;;;;;4.38;3.97;;;26.40;37.90;;;;;;5055922;28;20206;-76
2023/06/16 07:22:50;;;;;;;4.75;4.35;;;26.50;37.80;;;;;;5039578;28;20685;-77
2023/06/16 07:25:17;;;;;;;4.15;3.85;;;26.50;37.70;;;;;;5055865;28;20234;-77
2023/06/16 07:27:45;;;;;;;4.78;4.38;;;26.60;37.60;;;;;;5055953;28;20249;-77
2023/06/16 07:30:12;;;;;;;4.00;3.70;;;26.60;37.50;;;;;;5055719;28;20681;-77
2023/06/16 07:32:40;;;;;;;4.60;4.20;;;26.70;37.40;;;;;;5055637;28;20223;-77
2023/06/16 07:35:09;;;;;;;4.20;3.80;;;26.70;37.30;;;;;;5039584;28;20206;-77
2023/06/16 07:37:36;;;;;;;4.53;4.05;;;26.80;37.20;;;;;;5055888;28;20196;-77
2023/06/16 07:40:06;;;;;;;5.07;3.90;;;26.80;37.10;;;;;;5055519;28;20202;-77
2023/06/16 07:42:34;;;;;;;4.47;4.07;;;26.90;37.10;;;;;;5055493;28;20239;-77
2023/06/16 07:45:02;;;;;;;5.93;4.25;;;26.90;37.00;;;;;;5056721;28;20241;-77
2023/06/16 07:47:29;;;;;;;5.22;4.40;;;26.90;36.90;;;;;;5055690;28;20207;-77
2023/06/16 07:49:56;;;;;;;4.35;3.90;;;27.00;36.90;;;;;;5055701;28;20290;-77
2023/06/16 07:52:25;;;;;;;4.68;4.10;;;27.10;36.80;;;;;;5055356;28;20310;-77
2023/06/16 07:54:52;;;;;;;4.20;3.90;;;27.10;36.80;;;;;;5055357;28;20250;-77
2023/06/16 07:57:20;;;;;;;4.35;3.95;;;27.10;36.60;;;;;;5055349;28;20203;-77
2023/06/16 07:59:47;;;;;;;4.47;4.07;;;27.10;36.60;;;;;;5055310;28;20201;-77
2023/06/16 08:02:14;;;;;;;5.15;4.30;;;27.20;36.60;;;;;;5055123;28;20649;-77
2023/06/16 08:04:42;;;;;;;4.25;3.85;;;27.20;36.50;;;;;;5056141;28;20196;-77
2023/06/16 08:07:09;;;;;;;4.43;4.03;;;27.20;36.40;;;;;;5055116;28;20203;-77
2023/06/16 08:09:38;;;;;;;4.55;4.10;;;27.20;36.40;;;;;;5054595;28;20200;-77
2023/06/16 08:12:09;;;;;;;4.32;3.92;;;27.30;36.40;;;;;;5054758;28;20234;-77
2023/06/16 08:14:36;;;;;;;3.97;3.60;;;27.30;36.30;;;;;;5055548;28;20191;-76
2023/06/16 08:17:04;;;;;;;4.38;3.72;;;27.30;36.20;;;;;;5038681;28;20249;-76
2023/06/16 08:19:32;;;;;;;4.65;4.13;;;27.30;36.20;;;;;;5038617;28;20199;-76
2023/06/16 08:22:00;;;;;;;5.35;4.07;;;27.40;36.20;;;;;;5039421;28;20267;-76
2023/06/16 08:24:27;;;;;;;4.03;3.67;;;27.40;36.70;;;;;;5055478;28;20203;-76
2023/06/16 08:26:56;;;;;;;4.05;3.70;;;27.40;36.00;;;;;;5055360;28;20207;-76
2023/06/16 08:29:22;;;;;;;4.22;3.83;;;27.40;36.20;;;;;;5055434;28;20287;-76
2023/06/16 08:31:49;;;;;;;4.28;3.88;;;27.40;36.00;;;;;;5055433;28;20712;-76
2023/06/16 08:34:16;;;;;;;4.05;3.65;;;27.50;36.00;;;;;;5055954;28;20286;-76
2023/06/16 08:36:43;;;;;;;4.30;3.67;;;27.40;36.00;;;;;;5056013;28;20191;-76
2023/06/16 08:39:10;;;;;;;3.95;3.63;;;27.50;36.00;;;;;;5056463;28;20634;-76
2023/06/16 08:41:38;;;;;;;4.38;3.92;;;27.50;36.00;;;;;;5055454;28;20583;-76
2023/06/16 08:44:07;;;;;;;3.97;3.58;;;27.50;36.00;;;;;;5055827;28;20233;-76
2023/06/16 08:46:35;;;;;;;3.95;3.65;;;27.50;36.00;;;;;;5055225;28;20217;-76
2023/06/16 08:49:02;;;;;;;4.35;3.90;;;27.60;35.80;;;;;;5054654;28;20195;-77
2023/06/16 08:51:30;;;;;;;3.67;3.38;;;27.60;35.80;;;;;;5054775;28;20223;-76
2023/06/16 08:54:00;;;;;;;4.10;3.80;;;27.60;35.70;;;;;;5054999;28;20198;-76
2023/06/16 08:56:29;;;;;;;4.25;3.85;;;27.60;35.70;;;;;;5054689;28;20198;-76
2023/06/16 08:58:57;;;;;;;4.32;3.92;;;27.60;35.50;;;;;;5054430;28;20199;-77
2023/06/16 09:01:28;;;;;;;3.85;3.55;;;27.70;35.60;;;;;;5054217;28;20219;-76
2023/06/16 09:03:55;;;;;;;4.05;3.70;;;27.70;35.40;;;;;;5054934;28;20285;-76
2023/06/16 09:06:22;;;;;;;4.88;3.70;;;27.70;35.50;;;;;;5054409;28;20248;-76
2023/06/16 09:08:49;;;;;;;4.75;4.00;;;27.70;35.40;;;;;;5053797;28;20194;-76
2023/06/16 09:11:22;;;;;;;5.18;4.10;;;27.70;35.30;;;;;;5054984;28;20207;-76
2023/06/16 09:13:51;;;;;;;4.38;3.50;;;27.80;35.30;;;;;;5053890;28;20240;-76
2023/06/16 09:16:19;;;;;;;4.13;3.72;;;27.80;35.30;;;;;;5053935;28;20660;-76
2023/06/16 09:18:49;;;;;;;4.35;3.95;;;27.70;35.30;;;;;;5054490;28;20199;-76
2023/06/16 09:21:20;;;;;;;3.97;3.67;;;27.70;35.30;;;;;;5053751;28;20223;-77
2023/06/16 09:23:48;;;;;;;3.53;3.22;;;27.70;35.30;;;;;;5054017;28;20256;-77
2023/06/16 09:26:15;;;;;;;4.13;3.47;;;27.70;35.30;;;;;;5053786;28;20210;-77
2023/06/16 09:28:44;;;;;;;3.60;3.30;;;27.80;35.30;;;;;;5053691;28;20252;-77
2023/06/16 09:31:12;;;;;;;3.80;3.50;;;27.80;35.30;;;;;;5053494;28;20310;-77
2023/06/16 09:33:40;;;;;;;4.38;3.97;;;27.80;35.30;;;;;;5053586;28;20242;-77
2023/06/16 09:36:09;;;;;;;3.67;3.38;;;27.80;35.20;;;;;;5053813;28;20281;-77
2023/06/16 09:38:37;;;;;;;4.00;3.60;;;27.80;35.10;;;;;;5036984;28;20205;-77
2023/06/16 09:41:08;;;;;;;3.90;3.25;;;27.80;35.10;;;;;;5053444;28;20218;-77
2023/06/16 09:43:35;;;;;;;4.25;3.53;;;27.80;35.00;;;;;;5053100;28;20195;-77
2023/06/16 09:46:02;;;;;;;4.07;3.67;;;27.80;35.10;;;;;;5053106;28;20197;-77
2023/06/16 09:48:31;;;;;;;4.00;3.63;;;27.80;35.20;;;;;;5053175;28;20248;-77
2023/06/16 09:51:00;;;;;;;4.18;3.60;;;27.70;35.30;;;;;;5053208;28;20696;-77
2023/06/16 09:53:29;;;;;;;4.07;3.67;;;27.70;35.40;;;;;;5053199;28;20214;-77
2023/06/16 09:55:56;;;;;;;3.80;3.45;;;27.60;35.40;;;;;;5053429;28;20205;-77
2023/06/16 09:58:23;;;;;;;3.88;3.58;;;27.50;35.60;;;;;;5053031;28;20249;-77
2023/06/16 10:00:50;;;;;;;3.55;3.25;;;27.50;35.70;;;;;;5053078;28;20219;-77
2023/06/16 10:03:18;;;;;;;3.95;3.55;;;27.50;35.70;;;;;;5036886;28;20191;-77
2023/06/16 10:05:47;;;;;;;3.90;3.60;;;27.50;35.70;;;;;;5053520;28;20194;-77
2023/06/16 10:08:17;;;;;;;4.00;3.60;;;27.50;35.60;;;;;;5036473;28;20195;-77
2023/06/16 10:10:46;;;;;;;3.50;3.20;;;27.60;35.80;;;;;;5053046;28;20236;-77
2023/06/16 10:13:13;;;;;;;4.40;3.80;;;27.60;35.70;;;;;;5036659;28;20230;-78
2023/06/16 10:15:41;;;;;;;3.70;3.40;;;27.60;35.60;;;;;;5053143;28;20290;-78
2023/06/16 10:18:08;;;;;;;3.60;3.30;;;27.50;35.60;;;;;;5054914;28;20189;-78
2023/06/16 10:20:37;;;;;;;3.72;3.42;;;27.50;35.60;;;;;;5053247;28;20290;-78
2023/06/16 10:23:04;;;;;;;3.40;3.10;;;27.50;35.70;;;;;;5053008;28;20646;-78
2023/06/16 10:25:31;;;;;;;3.70;3.40;;;27.50;35.70;;;;;;5036429;28;20282;-78
2023/06/16 10:28:00;;;;;;;5.15;3.50;;;27.50;35.80;;;;;;5052817;28;20198;-78
2023/06/16 10:30:28;;;;;;;3.90;3.60;;;27.40;35.60;;;;;;5052739;28;20199;-78
2023/06/16 10:32:57;;;;;;;3.58;3.28;;;27.40;35.70;;;;;;5052800;28;20230;-78
2023/06/16 10:35:24;;;;;;;3.55;3.25;;;27.30;35.70;;;;;;5053013;28;20298;-78
2023/06/16 10:37:53;;;;;;;3.72;3.42;;;27.20;36.10;;;;;;5053055;28;20207;-78
2023/06/16 10:40:20;;;;;;;3.80;3.47;;;27.20;36.10;;;;;;5053537;28;20210;-78
2023/06/16 10:42:47;;;;;;;3.60;3.22;;;27.20;36.20;;;;;;5054886;28;20195;-78
2023/06/16 10:45:26;;;;;;;3.72;3.38;;;27.20;36.30;;;;;;5053973;28;20709;-78
2023/06/16 10:47:57;;;;;;;3.75;3.38;;;27.20;36.40;;;;;;5054006;28;20198;-78
2023/06/16 10:50:31;;;;;;;3.40;3.10;;;27.20;36.40;;;;;;5053891;28;20229;-78
2023/06/16 10:53:10;;;;;;;3.47;3.17;;;27.20;36.50;;;;;;5053469;28;20283;-78
2023/06/16 10:55:39;;;;;;;3.60;3.30;;;27.20;36.50;;;;;;5053743;28;20202;-78
2023/06/16 10:58:27;;;;;;;3.75;3.45;;;27.10;36.60;;;;;;5052776;28;20202;-78
2023/06/16 11:01:14;;;;;;;3.17;2.95;;;27.00;36.70;;;;;;5052934;28;20615;-78
2023/06/16 11:03:43;;;;;;;3.58;3.28;;;27.00;36.90;;;;;;5052702;28;20215;-78
2023/06/16 11:06:10;;;;;;;3.70;3.40;;;27.00;36.90;;;;;;5053120;28;20234;-78
2023/06/16 11:08:56;;;;;;;3.72;3.42;;;26.90;37.00;;;;;;5052494;28;20227;-78
2023/06/16 11:11:23;;;;;;;3.45;3.20;;;26.90;37.10;;;;;;5053361;28;20302;-78
2023/06/16 11:13:50;;;;;;;3.72;3.42;;;26.80;37.10;;;;;;5052534;28;20215;-78
2023/06/16 11:16:19;;;;;;;3.58;3.28;;;26.80;37.10;;;;;;5052521;28;20724;-78
2023/06/16 11:18:46;;;;;;;3.50;3.20;;;26.80;37.10;;;;;;5053318;28;20268;-78
2023/06/16 11:21:13;;;;;;;3.63;3.33;;;26.80;37.10;;;;;;5052831;28;20214;-78
2023/06/16 11:23:44;;;;;;;3.42;3.13;;;26.80;37.20;;;;;;5053566;28;20232;-78
2023/06/16 11:26:11;;;;;;;3.20;3.00;;;26.80;37.20;;;;;;5053069;28;20195;-78
2023/06/16 11:28:40;;;;;;;3.38;3.08;;;26.80;37.80;;;;;;5052233;28;20199;-78
2023/06/16 11:31:07;;;;;;;3.70;3.40;;;26.80;37.30;;;;;;5052181;28;20210;-78
2023/06/16 11:33:36;;;;;;;3.53;3.22;;;26.80;37.20;;;;;;5052072;28;20586;-78
2023/06/16 11:36:16;;;;;;;3.83;3.40;;;26.80;37.20;;;;;;5035324;28;20649;-78
2023/06/16 11:38:44;;;;;;;3.38;3.08;;;26.80;37.30;;;;;;5051868;28;20198;-78
2023/06/16 11:41:18;;;;;;;3.65;3.35;;;26.80;37.20;;;;;;5035613;28;20249;-78
2023/06/16 11:43:45;;;;;;;3.50;3.20;;;26.90;37.30;;;;;;5051907;28;20198;-78
2023/06/16 11:46:12;;;;;;;3.42;3.13;;;26.80;37.30;;;;;;5056094;28;20195;-78
2023/06/16 11:48:40;;;;;;;3.33;3.13;;;26.80;37.40;;;;;;5055368;28;20179;-78
2023/06/16 11:51:07;;;;;;;3.42;3.13;;;26.80;37.30;;;;;;5055329;28;20219;-78
2023/06/16 11:53:34;;;;;;;3.60;3.30;;;26.80;37.50;;;;;;5039387;28;20292;-77
2023/06/16 11:56:04;;;;;;;3.30;3.00;;;26.80;37.50;;;;;;5039094;28;20286;-77
2023/06/16 11:58:32;;;;;;;3.40;3.10;;;26.70;37.40;;;;;;5055128;28;20195;-77
2023/06/16 12:01:00;;;;;;;3.38;3.08;;;26.80;37.60;;;;;;5055806;28;20244;-77
2023/06/16 12:03:28;;;;;;;3.50;3.20;;;26.80;37.60;;;;;;5055669;28;20190;-77
2023/06/16 12:05:57;;;;;;;3.45;3.20;;;26.70;37.50;;;;;;5055196;28;20214;-77
2023/06/16 12:08:43;;;;;;;3.40;3.10;;;26.70;37.50;;;;;;5055088;28;20207;-77
2023/06/16 12:11:10;;;;;;;3.20;3.00;;;26.80;37.60;;;;;;5055518;28;20287;-77
2023/06/16 12:13:37;;;;;;;3.22;3.00;;;26.70;37.50;;;;;;5055849;28;20276;-77
2023/06/16 12:16:05;;;;;;;3.13;2.92;;;26.70;37.60;;;;;;5055179;28;20195;-77
2023/06/16 12:18:32;;;;;;;3.40;3.20;;;26.70;37.70;;;;;;5055273;28;20231;-77
2023/06/16 12:21:17;;;;;;;4.03;2.90;;;26.70;37.80;;;;;;5054926;28;20215;-77
2023/06/16 12:23:51;;;;;;;3.70;3.40;;;26.70;37.80;;;;;;5054974;28;20214;-77
2023/06/16 12:26:29;;;;;;;3.60;3.30;;;26.60;37.80;;;;;;5054819;28;20197;-77
2023/06/16 12:28:56;;;;;;;3.67;3.35;;;26.70;37.90;;;;;;5054938;28;20194;-77
2023/06/16 12:31:26;;;;;;;3.30;3.00;;;26.60;37.80;;;;;;5054726;28;20221;-76
2023/06/16 12:33:53;;;;;;;3.53;3.22;;;26.60;37.80;;;;;;5054786;28;20334;-76
2023/06/16 12:36:21;;;;;;;3.45;3.15;;;26.60;37.80;;;;;;5054644;28;20195;-77
2023/06/16 12:38:49;;;;;;;3.10;2.90;;;26.60;37.90;;;;;;5054545;28;20195;-77
2023/06/16 12:41:16;;;;;;;3.10;2.90;;;26.60;37.80;;;;;;5054587;28;20215;-77
2023/06/16 12:43:48;;;;;;;3.20;3.00;;;26.60;37.90;;;;;;5054869;28;20195;-77
2023/06/16 12:46:14;;;;;;;3.28;2.90;;;26.60;38.00;;;;;;5055669;28;20575;-77
2023/06/16 12:48:41;;;;;;;3.17;2.90;;;26.60;38.00;;;;;;5062233;28;20225;-77
2023/06/16 12:51:08;;;;;;;3.50;3.20;;;26.60;38.10;;;;;;5073276;28;20230;-77
2023/06/16 12:53:44;;;;;;;3.10;2.90;;;26.60;38.20;;;;;;5074144;28;20215;-76
2023/06/16 12:56:11;;;;;;;3.47;3.20;;;26.60;38.20;;;;;;5060630;28;20535;-77